Time;durP1;ratioP1;P1;durP2;ratioP2;P2;SDS_P1;SDS_P2;PMS_P1;PMS_P2;Temp;Humidity;BMP_temperature;BMP_pressure;BME280_temperature;BME280_humidity;BME280_pressure;Samples;Min_cycle;Max_cycle;Signal;HPM_P1;HPM_P2
2022/04/03 00:01:14;;;;;;;5.78;1.77;;;2.80;99.90;;;;;;5076695;28;20426;-69
2022/04/03 00:03:43;;;;;;;2.20;1.48;;;2.80;99.90;;;;;;5076708;28;20120;-69
2022/04/03 00:06:09;;;;;;;2.83;1.42;;;2.60;99.90;;;;;;5076606;28;20059;-69
2022/04/03 00:08:35;;;;;;;2.75;1.70;;;2.60;99.90;;;;;;5076804;28;20055;-70
2022/04/03 00:11:01;;;;;;;2.75;1.60;;;2.50;99.90;;;;;;5076619;28;20032;-71
2022/04/03 00:13:28;;;;;;;2.65;1.73;;;2.40;99.90;;;;;;5075761;28;20093;-70
2022/04/03 00:15:56;;;;;;;4.13;1.73;;;2.40;99.90;;;;;;5059161;28;20021;-70
2022/04/03 00:18:22;;;;;;;1.98;1.30;;;2.30;99.90;;;;;;5075887;28;20032;-70
2022/04/03 00:20:49;;;;;;;3.35;1.65;;;2.30;99.90;;;;;;5076465;28;20130;-69
2022/04/03 00:23:15;;;;;;;5.32;2.00;;;2.30;99.90;;;;;;5075682;28;20395;-69
2022/04/03 00:25:41;;;;;;;4.63;1.77;;;2.30;99.90;;;;;;5076569;28;20021;-69
2022/04/03 00:28:07;;;;;;;4.40;2.10;;;2.40;99.90;;;;;;5076387;28;20032;-69
2022/04/03 00:30:34;;;;;;;3.67;1.88;;;2.30;99.90;;;;;;5076276;28;20464;-68
2022/04/03 00:33:00;;;;;;;3.65;1.77;;;2.30;99.90;;;;;;5076339;28;20040;-69
2022/04/03 00:35:26;;;;;;;2.10;1.58;;;2.30;99.90;;;;;;5075657;28;20024;-68
2022/04/03 00:37:51;;;;;;;2.03;1.50;;;2.30;99.90;;;;;;5076364;28;20056;-68
2022/04/03 00:40:21;;;;;;;1.90;1.63;;;2.20;99.90;;;;;;5075313;28;20047;-69
2022/04/03 00:42:47;;;;;;;2.92;1.80;;;2.20;99.90;;;;;;5076228;28;20062;-69
2022/04/03 00:45:13;;;;;;;2.95;1.70;;;2.30;99.90;;;;;;5076560;28;20359;-69
2022/04/03 00:47:40;;;;;;;3.38;1.63;;;2.20;99.90;;;;;;5076200;28;20044;-69
2022/04/03 00:50:06;;;;;;;3.58;1.63;;;2.20;99.90;;;;;;5075367;28;20092;-69
2022/04/03 00:52:32;;;;;;;3.90;1.55;;;2.20;99.90;;;;;;5076313;28;20041;-70
2022/04/03 00:54:57;;;;;;;4.30;1.63;;;2.20;99.90;;;;;;5079728;28;20025;-69
2022/04/03 00:57:25;;;;;;;3.55;1.80;;;2.20;99.90;;;;;;5078928;28;20093;-69
2022/04/03 00:59:53;;;;;;;3.63;1.63;;;2.20;99.90;;;;;;5062334;28;20032;-69
2022/04/03 01:02:19;;;;;;;2.78;1.60;;;2.20;99.90;;;;;;5079682;28;20104;-69
2022/04/03 01:04:45;;;;;;;2.85;1.67;;;2.20;99.90;;;;;;5079568;28;20133;-69
2022/04/03 01:07:10;;;;;;;4.28;2.08;;;2.30;99.90;;;;;;5078776;28;20032;-69
2022/04/03 01:09:36;;;;;;;4.28;1.70;;;2.30;99.90;;;;;;5079517;28;20089;-69
2022/04/03 01:12:03;;;;;;;2.97;1.50;;;2.20;99.90;;;;;;5079387;28;20036;-69
2022/04/03 01:14:38;;;;;;;2.00;1.40;;;2.10;99.90;;;;;;5079402;28;20033;-69
2022/04/03 01:17:06;;;;;;;2.25;1.58;;;2.10;99.90;;;;;;5079331;28;20052;-69
2022/04/03 01:19:32;;;;;;;3.85;1.63;;;2.00;99.90;;;;;;5078650;28;20029;-69
2022/04/03 01:21:58;;;;;;;2.38;1.67;;;2.00;99.90;;;;;;5079610;28;20351;-69
2022/04/03 01:24:25;;;;;;;3.47;1.50;;;2.00;99.90;;;;;;5079206;28;20159;-70
2022/04/03 01:26:52;;;;;;;2.55;1.58;;;1.90;99.90;;;;;;5061726;28;20128;-69
2022/04/03 01:29:18;;;;;;;3.13;1.80;;;2.00;99.90;;;;;;5079484;28;20400;-69
2022/04/03 01:31:45;;;;;;;3.47;1.70;;;1.90;99.90;;;;;;5078907;28;20087;-70
2022/04/03 01:34:11;;;;;;;4.10;1.77;;;2.00;99.90;;;;;;5079042;28;20020;-69
2022/04/03 01:36:37;;;;;;;5.45;1.60;;;2.00;99.90;;;;;;5079022;28;20043;-69
2022/04/03 01:39:03;;;;;;;3.45;1.45;;;1.90;99.90;;;;;;5078370;28;20120;-69
2022/04/03 01:41:29;;;;;;;2.65;1.80;;;1.80;99.90;;;;;;5079302;28;20032;-69
2022/04/03 01:43:56;;;;;;;3.30;1.80;;;1.80;99.90;;;;;;5078925;28;20401;-69
2022/04/03 01:46:21;;;;;;;2.97;1.63;;;1.80;99.90;;;;;;5078001;28;20048;-69
2022/04/03 01:48:47;;;;;;;4.72;1.85;;;1.80;99.90;;;;;;5078380;28;20301;-68
2022/04/03 01:51:13;;;;;;;2.95;1.70;;;1.80;99.90;;;;;;5078770;28;20040;-69
2022/04/03 01:53:39;;;;;;;2.78;1.85;;;1.70;99.90;;;;;;5078722;28;20028;-69
2022/04/03 01:56:07;;;;;;;2.95;1.75;;;1.70;99.90;;;;;;5077949;28;20051;-70
2022/04/03 01:58:34;;;;;;;2.83;1.92;;;1.80;99.90;;;;;;5077811;28;20055;-69
2022/04/03 02:01:00;;;;;;;2.65;1.70;;;1.80;99.90;;;;;;5078486;28;20112;-69
2022/04/03 02:03:27;;;;;;;3.55;2.08;;;1.70;99.90;;;;;;5077731;28;20024;-69
2022/04/03 02:05:53;;;;;;;2.92;1.90;;;1.70;99.90;;;;;;5078541;28;20033;-69
2022/04/03 02:08:19;;;;;;;3.10;1.88;;;1.70;99.90;;;;;;5077713;28;20094;-69
2022/04/03 02:10:45;;;;;;;3.78;2.05;;;1.70;99.90;;;;;;5078203;28;20036;-69
2022/04/03 02:13:11;;;;;;;3.47;1.70;;;1.70;99.90;;;;;;5077552;28;20342;-69
2022/04/03 02:15:38;;;;;;;5.57;2.10;;;1.70;99.90;;;;;;5078480;28;20024;-69
2022/04/03 02:18:04;;;;;;;3.13;1.80;;;1.70;99.90;;;;;;5077431;28;20036;-69
2022/04/03 02:20:31;;;;;;;4.00;2.10;;;1.80;99.90;;;;;;5078110;28;20162;-69
2022/04/03 02:23:01;;;;;;;3.35;2.00;;;1.80;99.90;;;;;;5078460;28;20039;-69
2022/04/03 02:25:28;;;;;;;5.70;2.03;;;1.80;99.90;;;;;;5078310;28;20051;-69
2022/04/03 02:27:54;;;;;;;2.75;1.75;;;1.80;99.90;;;;;;5077887;28;20094;-69
2022/04/03 02:30:20;;;;;;;3.28;1.95;;;1.90;99.90;;;;;;5078470;28;20058;-69
2022/04/03 02:32:46;;;;;;;3.38;2.20;;;2.00;99.90;;;;;;5077906;28;20108;-69
2022/04/03 02:35:13;;;;;;;4.25;2.00;;;1.90;99.90;;;;;;5077841;28;20056;-69
2022/04/03 02:37:40;;;;;;;7.38;2.13;;;1.90;99.90;;;;;;5044234;28;20029;-69
2022/04/03 02:40:08;;;;;;;3.50;2.13;;;2.00;99.90;;;;;;5077832;28;20114;-69
2022/04/03 02:42:34;;;;;;;7.55;2.10;;;2.10;99.90;;;;;;5077019;28;20446;-69
2022/04/03 02:45:00;;;;;;;5.30;2.20;;;2.20;99.90;;;;;;5077040;28;20037;-69
2022/04/03 02:47:27;;;;;;;4.57;2.03;;;2.30;99.90;;;;;;5077726;28;20341;-69
2022/04/03 02:49:53;;;;;;;3.95;2.05;;;2.30;99.90;;;;;;5076757;28;20385;-70
2022/04/03 02:52:20;;;;;;;3.28;1.90;;;2.50;99.90;;;;;;5077496;28;20311;-70
2022/04/03 02:54:47;;;;;;;4.63;1.85;;;2.50;99.90;;;;;;5077474;28;20020;-69
2022/04/03 02:57:17;;;;;;;3.42;1.88;;;2.50;99.90;;;;;;5077400;28;20079;-69
2022/04/03 02:59:44;;;;;;;3.28;2.05;;;2.50;99.90;;;;;;5077451;28;20028;-69
2022/04/03 03:02:11;;;;;;;2.72;1.95;;;2.50;99.90;;;;;;5077403;28;20032;-69
2022/04/03 03:04:38;;;;;;;4.15;2.05;;;2.40;99.90;;;;;;5076728;28;20040;-69
2022/04/03 03:07:08;;;;;;;4.55;2.20;;;2.40;99.90;;;;;;5076739;28;20093;-69
2022/04/03 03:09:34;;;;;;;2.65;1.90;;;2.30;99.90;;;;;;5076404;28;20320;-70
2022/04/03 03:12:00;;;;;;;2.13;1.85;;;2.20;99.90;;;;;;5077175;28;20086;-69
2022/04/03 03:14:28;;;;;;;4.95;1.80;;;2.10;99.90;;;;;;5077100;28;20028;-70
2022/04/03 03:16:55;;;;;;;4.00;2.03;;;2.10;99.90;;;;;;5076731;28;20028;-69
2022/04/03 03:19:21;;;;;;;4.47;2.28;;;2.00;99.90;;;;;;5077124;28;20068;-69
2022/04/03 03:21:47;;;;;;;2.75;2.13;;;1.90;99.90;;;;;;5076428;28;20036;-69
2022/04/03 03:24:13;;;;;;;4.13;1.75;;;1.90;99.90;;;;;;5059660;28;20118;-68
2022/04/03 03:26:39;;;;;;;5.30;2.30;;;1.80;99.90;;;;;;5077078;28;20110;-70
2022/04/03 03:29:05;;;;;;;4.10;2.00;;;1.80;99.90;;;;;;5076945;28;20024;-68
2022/04/03 03:31:31;;;;;;;4.10;2.00;;;1.70;99.90;;;;;;5076244;28;20040;-69
2022/04/03 03:33:58;;;;;;;4.00;1.95;;;1.70;99.90;;;;;;5077017;28;20111;-69
2022/04/03 03:36:24;;;;;;;3.78;2.10;;;1.60;99.90;;;;;;5059553;28;20033;-69
2022/04/03 03:38:50;;;;;;;2.70;1.80;;;1.60;99.90;;;;;;5077304;28;20032;-67
2022/04/03 03:41:16;;;;;;;7.28;2.20;;;1.60;99.90;;;;;;5076828;28;20312;-69
2022/04/03 03:43:43;;;;;;;3.72;2.00;;;1.60;99.90;;;;;;5077320;28;20032;-69
2022/04/03 03:46:09;;;;;;;3.80;2.00;;;1.50;99.90;;;;;;5076725;28;20032;-69
2022/04/03 03:48:36;;;;;;;5.93;2.50;;;1.50;99.90;;;;;;5076771;28;20089;-69
2022/04/03 03:51:02;;;;;;;5.10;2.10;;;1.40;99.90;;;;;;5076664;28;20097;-69
2022/04/03 03:53:30;;;;;;;2.92;2.00;;;1.40;99.90;;;;;;5076817;28;20028;-69
2022/04/03 03:55:56;;;;;;;3.03;2.20;;;1.40;99.90;;;;;;5076639;28;20020;-69
2022/04/03 03:58:22;;;;;;;3.00;2.42;;;1.50;99.90;;;;;;5076103;28;20358;-68
2022/04/03 04:00:48;;;;;;;3.88;1.98;;;1.30;99.90;;;;;;5075874;28;20035;-68
2022/04/03 04:03:14;;;;;;;3.33;2.17;;;1.30;99.90;;;;;;5076027;28;20040;-70
2022/04/03 04:05:40;;;;;;;3.45;2.15;;;1.30;99.90;;;;;;5076624;28;20097;-68
2022/04/03 04:08:07;;;;;;;2.63;2.03;;;1.20;99.90;;;;;;5076607;28;20032;-68
2022/04/03 04:10:33;;;;;;;3.45;2.60;;;1.20;99.90;;;;;;5075786;28;20032;-69
2022/04/03 04:12:59;;;;;;;5.28;2.13;;;1.10;99.90;;;;;;5076649;28;20410;-69
2022/04/03 04:15:25;;;;;;;3.95;2.30;;;1.10;99.90;;;;;;5076504;28;20028;-69
2022/04/03 04:17:54;;;;;;;4.30;2.20;;;1.10;99.90;;;;;;5076520;28;20099;-69
2022/04/03 04:20:21;;;;;;;3.38;2.22;;;1.10;99.90;;;;;;5075854;28;20412;-69
2022/04/03 04:22:48;;;;;;;3.40;2.03;;;1.20;99.90;;;;;;5075767;28;20044;-68
2022/04/03 04:25:15;;;;;;;3.38;1.90;;;1.30;99.90;;;;;;5076435;28;20051;-70
2022/04/03 04:27:42;;;;;;;4.82;2.20;;;1.20;99.90;;;;;;5077646;28;20028;-69
2022/04/03 04:30:08;;;;;;;5.45;2.40;;;1.20;99.90;;;;;;5080178;28;20455;-69
2022/04/03 04:32:37;;;;;;;3.95;2.30;;;1.10;99.90;;;;;;5079454;28;20107;-69
2022/04/03 04:35:04;;;;;;;4.10;2.33;;;1.10;99.90;;;;;;5080068;28;20127;-70
2022/04/03 04:37:30;;;;;;;3.88;2.08;;;1.10;99.90;;;;;;5079397;28;20032;-69
2022/04/03 04:39:56;;;;;;;2.90;2.25;;;1.00;99.90;;;;;;5079138;28;20439;-69
2022/04/03 04:42:22;;;;;;;4.70;2.30;;;1.00;99.90;;;;;;5080061;28;20060;-69
2022/04/03 04:44:48;;;;;;;4.13;2.20;;;1.00;99.90;;;;;;5079953;28;20020;-69
2022/04/03 04:47:14;;;;;;;3.03;2.28;;;1.00;99.90;;;;;;5079264;28;20046;-70
2022/04/03 04:49:40;;;;;;;4.13;2.40;;;1.10;99.90;;;;;;5079084;28;20036;-70
2022/04/03 04:52:06;;;;;;;2.83;2.13;;;1.00;99.90;;;;;;5079868;28;20032;-69
2022/04/03 04:54:32;;;;;;;4.93;2.28;;;1.10;99.90;;;;;;5080228;28;20029;-69
2022/04/03 04:56:58;;;;;;;3.67;2.60;;;1.10;99.90;;;;;;5079665;28;20033;-70
2022/04/03 04:59:24;;;;;;;3.70;2.45;;;1.20;99.90;;;;;;5079734;28;20119;-70
2022/04/03 05:01:50;;;;;;;5.78;2.60;;;1.20;99.90;;;;;;5079626;28;20068;-69
2022/04/03 05:04:16;;;;;;;3.67;2.25;;;1.10;99.90;;;;;;5078913;28;20029;-69
2022/04/03 05:06:42;;;;;;;3.70;2.30;;;1.10;99.90;;;;;;5078825;28;20051;-69
2022/04/03 05:09:08;;;;;;;4.47;2.72;;;0.90;99.90;;;;;;5078799;28;20142;-69
2022/04/03 05:11:36;;;;;;;3.15;2.47;;;0.90;99.90;;;;;;5079543;28;20060;-69
2022/04/03 05:14:03;;;;;;;3.35;2.20;;;0.90;99.90;;;;;;5080706;28;20106;-70
2022/04/03 05:16:29;;;;;;;4.95;2.65;;;0.80;99.90;;;;;;5080510;28;20124;-70
2022/04/03 05:18:55;;;;;;;3.70;2.45;;;0.70;99.90;;;;;;5080326;28;20443;-70
2022/04/03 05:21:22;;;;;;;4.80;2.60;;;0.80;99.90;;;;;;5079973;28;20281;-70
2022/04/03 05:23:49;;;;;;;4.28;2.05;;;0.80;99.90;;;;;;5079299;28;20024;-69
2022/04/03 05:26:17;;;;;;;5.07;2.33;;;0.80;99.90;;;;;;5079422;28;20387;-69
2022/04/03 05:28:43;;;;;;;3.92;2.53;;;0.90;99.90;;;;;;5079131;28;20112;-70
2022/04/03 05:31:09;;;;;;;4.10;2.83;;;0.90;99.90;;;;;;5079676;28;20044;-70
2022/04/03 05:33:35;;;;;;;4.00;2.40;;;0.90;99.90;;;;;;5079585;28;20036;-70
2022/04/03 05:36:01;;;;;;;5.15;2.53;;;0.90;99.90;;;;;;5079720;28;20106;-69
2022/04/03 05:38:27;;;;;;;3.75;2.50;;;0.90;99.90;;;;;;5078239;28;20358;-70
2022/04/03 05:40:53;;;;;;;3.65;2.83;;;1.00;99.90;;;;;;5079424;28;20052;-70
2022/04/03 05:43:22;;;;;;;6.63;2.78;;;1.10;99.90;;;;;;5078741;28;20468;-70
2022/04/03 05:45:47;;;;;;;5.47;2.78;;;1.10;99.90;;;;;;5078587;28;20033;-70
2022/04/03 05:48:13;;;;;;;4.30;2.20;;;1.10;99.90;;;;;;5079607;28;20285;-71
2022/04/03 05:50:39;;;;;;;6.72;2.60;;;1.20;99.90;;;;;;5079388;28;20300;-68
2022/04/03 05:53:06;;;;;;;3.60;2.42;;;1.20;99.90;;;;;;5078874;28;20078;-69
2022/04/03 05:55:32;;;;;;;5.70;2.50;;;1.20;99.90;;;;;;5079857;28;20337;-71
2022/04/03 05:57:58;;;;;;;4.88;2.63;;;1.20;99.90;;;;;;5079488;28;20106;-69
2022/04/03 06:00:24;;;;;;;5.80;2.75;;;1.30;99.90;;;;;;5078692;28;20041;-69
2022/04/03 06:02:56;;;;;;;3.85;2.47;;;1.30;99.90;;;;;;5078548;28;20059;-68
2022/04/03 06:05:25;;;;;;;4.97;2.05;;;1.40;99.90;;;;;;5078355;28;20042;-68
2022/04/03 06:07:51;;;;;;;2.95;2.50;;;1.50;99.90;;;;;;5078416;28;20029;-69
2022/04/03 06:10:19;;;;;;;4.88;2.53;;;1.60;99.90;;;;;;5078829;28;20056;-70
2022/04/03 06:13:02;;;;;;;5.75;3.10;;;1.60;99.90;;;;;;5078988;28;20319;-69
2022/04/03 06:15:37;;;;;;;4.55;2.72;;;1.70;99.90;;;;;;5077854;28;20036;-69
2022/04/03 06:18:15;;;;;;;6.38;3.22;;;1.80;99.90;;;;;;5078472;28;20040;-70
2022/04/03 06:20:41;;;;;;;6.68;3.00;;;1.80;99.90;;;;;;5078305;28;20028;-69
2022/04/03 06:23:11;;;;;;;8.90;3.60;;;1.80;99.90;;;;;;5078501;28;20040;-69
2022/04/03 06:25:37;;;;;;;7.00;3.45;;;1.90;99.90;;;;;;5078154;28;20085;-69
2022/04/03 06:28:03;;;;;;;6.95;3.45;;;2.00;99.90;;;;;;5061408;28;20126;-69
2022/04/03 06:30:29;;;;;;;4.55;3.03;;;2.00;99.90;;;;;;5077841;28;20141;-69
2022/04/03 06:32:55;;;;;;;7.47;3.63;;;2.10;99.90;;;;;;5077846;28;20412;-71
2022/04/03 06:35:21;;;;;;;6.97;4.00;;;2.20;99.90;;;;;;5078194;28;20485;-70
2022/04/03 06:37:47;;;;;;;5.47;3.75;;;2.20;99.90;;;;;;5077784;28;20024;-69
2022/04/03 06:40:14;;;;;;;6.38;3.40;;;2.30;99.90;;;;;;5077575;28;20040;-69
2022/04/03 06:42:40;;;;;;;5.35;3.20;;;2.40;99.90;;;;;;5077210;28;20278;-69
2022/04/03 06:45:06;;;;;;;5.57;3.38;;;2.50;99.90;;;;;;5077779;28;20040;-70
2022/04/03 06:47:33;;;;;;;7.80;3.25;;;2.60;99.90;;;;;;5077255;28;20040;-69
2022/04/03 06:49:59;;;;;;;6.68;3.50;;;2.80;99.90;;;;;;5075942;28;20032;-69
2022/04/03 06:52:25;;;;;;;6.07;3.53;;;3.00;99.90;;;;;;5077023;28;20024;-67
2022/04/03 06:54:51;;;;;;;6.20;3.53;;;3.10;99.90;;;;;;5077514;28;20332;-68
2022/04/03 06:57:18;;;;;;;6.97;3.47;;;3.20;99.90;;;;;;5076811;28;20273;-67
2022/04/03 06:59:44;;;;;;;4.57;3.50;;;3.30;99.90;;;;;;5078197;28;20040;-68
2022/04/03 07:02:10;;;;;;;5.70;3.75;;;3.40;99.90;;;;;;5077482;28;20024;-68
2022/04/03 07:04:36;;;;;;;4.35;3.00;;;3.60;99.90;;;;;;5077444;28;20028;-69
2022/04/03 07:07:03;;;;;;;4.50;3.22;;;4.00;99.90;;;;;;5076586;28;20036;-69
2022/04/03 07:09:29;;;;;;;5.18;2.90;;;4.20;99.90;;;;;;5077485;28;20024;-69
2022/04/03 07:11:55;;;;;;;7.00;3.22;;;4.30;99.90;;;;;;5077786;28;20066;-69
2022/04/03 07:14:21;;;;;;;5.18;3.20;;;4.40;99.90;;;;;;5077792;28;20416;-69
2022/04/03 07:16:46;;;;;;;4.10;2.92;;;4.50;99.90;;;;;;5077907;28;20028;-68
2022/04/03 07:19:12;;;;;;;3.03;2.50;;;4.60;99.90;;;;;;5060193;28;20032;-69
2022/04/03 07:21:38;;;;;;;8.07;2.95;;;4.80;99.90;;;;;;5059983;28;20039;-69
2022/04/03 07:24:04;;;;;;;4.60;2.58;;;4.90;99.90;;;;;;5059957;28;20121;-69
2022/04/03 07:26:31;;;;;;;4.32;2.78;;;5.00;99.90;;;;;;5059799;28;20300;-66
2022/04/03 07:28:57;;;;;;;4.95;2.60;;;5.10;99.90;;;;;;5077171;28;20123;-68
2022/04/03 07:31:23;;;;;;;2.97;2.55;;;5.10;99.90;;;;;;5077208;28;20487;-68
2022/04/03 07:33:49;;;;;;;3.88;2.60;;;5.10;99.90;;;;;;5077324;28;20045;-68
2022/04/03 07:36:16;;;;;;;3.45;2.90;;;5.20;99.90;;;;;;5077240;28;20264;-68
2022/04/03 07:38:42;;;;;;;3.95;2.83;;;5.30;99.90;;;;;;5060017;28;20312;-69
2022/04/03 07:41:10;;;;;;;6.63;3.20;;;5.50;99.90;;;;;;5076239;28;20359;-68
2022/04/03 07:43:36;;;;;;;5.78;3.53;;;5.50;99.90;;;;;;5076467;28;20036;-69
2022/04/03 07:46:02;;;;;;;7.03;3.42;;;5.60;99.90;;;;;;5076509;28;20045;-68
2022/04/03 07:48:28;;;;;;;7.13;3.63;;;5.30;99.90;;;;;;5076883;28;20102;-68
2022/04/03 07:50:54;;;;;;;5.32;3.17;;;5.30;99.90;;;;;;5076716;28;20043;-68
2022/04/03 07:53:20;;;;;;;6.95;3.92;;;5.50;99.90;;;;;;5076832;28;20086;-68
2022/04/03 07:55:46;;;;;;;3.92;3.53;;;5.60;99.90;;;;;;5077184;28;20029;-69
2022/04/03 07:58:12;;;;;;;6.18;3.83;;;5.80;99.90;;;;;;5077063;28;20025;-69
2022/04/03 08:00:38;;;;;;;4.93;3.78;;;5.60;99.90;;;;;;5077105;28;20299;-68
2022/04/03 08:03:04;;;;;;;5.38;3.53;;;5.80;99.90;;;;;;5079416;28;20123;-68
2022/04/03 08:05:30;;;;;;;5.53;3.25;;;5.80;99.90;;;;;;5080699;28;20052;-69
2022/04/03 08:07:56;;;;;;;4.10;2.92;;;5.90;99.90;;;;;;5080033;28;20422;-69
2022/04/03 08:10:22;;;;;;;4.85;3.40;;;6.10;99.90;;;;;;5080561;28;20044;-70
2022/04/03 08:12:50;;;;;;;5.15;1.55;;;6.20;99.90;;;;;;5080616;28;20358;-70
2022/04/03 08:15:19;;;;;;;3.65;1.92;;;6.40;99.90;;;;;;5080063;28;20029;-69
2022/04/03 08:17:45;;;;;;;4.15;2.45;;;6.50;99.90;;;;;;5079946;28;20036;-70
2022/04/03 08:20:16;;;;;;;3.50;2.30;;;6.50;99.90;;;;;;5080072;28;20309;-70
2022/04/03 08:22:42;;;;;;;4.63;3.08;;;6.50;99.90;;;;;;5080637;28;20448;-68
2022/04/03 08:25:10;;;;;;;3.10;2.80;;;6.60;99.90;;;;;;5080425;28;20024;-67
2022/04/03 08:27:55;;;;;;;9.38;3.10;;;6.60;99.90;;;;;;5079773;28;20304;-68
2022/04/03 08:30:24;;;;;;;4.55;3.50;;;6.80;99.90;;;;;;5079618;28;20040;-69
2022/04/03 08:32:50;;;;;;;5.07;2.90;;;6.80;99.90;;;;;;5080445;28;20031;-68
2022/04/03 08:35:18;;;;;;;7.60;3.25;;;6.80;99.90;;;;;;5079761;28;20090;-69
2022/04/03 08:37:44;;;;;;;3.97;3.20;;;6.60;99.90;;;;;;5080633;28;20056;-68
2022/04/03 08:40:12;;;;;;;4.05;3.33;;;6.70;99.90;;;;;;5079351;28;20123;-68
2022/04/03 08:42:39;;;;;;;3.17;2.88;;;6.40;99.90;;;;;;5080563;28;20158;-69
2022/04/03 08:45:11;;;;;;;4.70;3.20;;;6.20;99.90;;;;;;5080636;28;20115;-68
2022/04/03 08:47:47;;;;;;;4.10;2.60;;;6.40;99.90;;;;;;5080312;28;20040;-69
2022/04/03 08:50:15;;;;;;;3.65;2.78;;;6.80;99.90;;;;;;5080345;28;20119;-69
2022/04/03 08:52:46;;;;;;;3.33;3.03;;;6.90;99.90;;;;;;5080225;28;20028;-69
2022/04/03 08:55:12;;;;;;;3.90;2.40;;;7.00;99.90;;;;;;5079806;28;20028;-69
2022/04/03 08:57:38;;;;;;;3.63;2.20;;;7.20;99.90;;;;;;5079764;28;20339;-69
2022/04/03 09:00:05;;;;;;;2.65;1.25;;;7.10;99.90;;;;;;5079697;28;20033;-71
2022/04/03 09:02:31;;;;;;;2.08;0.82;;;7.10;99.90;;;;;;5079061;28;20036;-69
2022/04/03 09:04:57;;;;;;;1.60;0.90;;;7.40;99.90;;;;;;5080019;28;20032;-69
2022/04/03 09:07:23;;;;;;;2.17;1.10;;;7.50;99.90;;;;;;5078982;28;20024;-69
2022/04/03 09:10:05;;;;;;;1.85;1.25;;;7.50;99.90;;;;;;5078800;28;20044;-69
2022/04/03 09:12:31;;;;;;;1.25;1.15;;;7.70;99.90;;;;;;5079476;28;20375;-69
2022/04/03 09:14:57;;;;;;;2.13;1.10;;;7.70;99.90;;;;;;5078304;28;20025;-69
2022/04/03 09:17:38;;;;;;;2.22;1.00;;;7.80;99.90;;;;;;5078774;28;20016;-69
2022/04/03 09:20:06;;;;;;;1.90;1.13;;;7.90;99.90;;;;;;5079556;28;20111;-69
2022/04/03 09:22:35;;;;;;;3.42;1.40;;;7.60;99.90;;;;;;5078726;28;20400;-69
2022/04/03 09:25:09;;;;;;;2.45;1.20;;;7.70;99.90;;;;;;5079481;28;20094;-69
2022/04/03 09:27:48;;;;;;;2.63;1.70;;;7.80;99.90;;;;;;5078787;28;20110;-69
2022/04/03 09:30:15;;;;;;;3.08;1.70;;;7.90;99.90;;;;;;5079296;28;20035;-70
2022/04/03 09:32:52;;;;;;;3.00;2.25;;;8.10;99.90;;;;;;5079276;28;20025;-70
2022/04/03 09:35:26;;;;;;;2.85;1.92;;;8.20;99.90;;;;;;5078624;28;20127;-69
2022/04/03 09:38:12;;;;;;;3.35;1.83;;;8.30;99.90;;;;;;5079590;28;20331;-69
2022/04/03 09:40:44;;;;;;;3.08;1.70;;;8.30;99.90;;;;;;5079351;28;20079;-70
2022/04/03 09:43:28;;;;;;;2.10;1.90;;;8.30;99.90;;;;;;5079519;28;20028;-70
2022/04/03 09:45:58;;;;;;;2.10;1.80;;;8.40;99.90;;;;;;5078850;28;20032;-70
2022/04/03 09:48:36;;;;;;;3.38;2.97;;;8.60;99.90;;;;;;5078733;28;20036;-70
2022/04/03 09:51:13;;;;;;;5.85;2.97;;;8.80;99.90;;;;;;5079614;28;20047;-70
2022/04/03 09:53:56;;;;;;;3.28;2.60;;;8.80;99.90;;;;;;5079329;28;20078;-71
2022/04/03 09:56:27;;;;;;;3.03;2.80;;;8.00;99.90;;;;;;5079136;28;20025;-70
2022/04/03 09:58:53;;;;;;;3.60;2.47;;;8.00;99.90;;;;;;5078906;28;20051;-69
2022/04/03 10:01:38;;;;;;;2.65;1.80;;;8.20;99.90;;;;;;5061197;28;20112;-70
2022/04/03 10:04:14;;;;;;;3.78;2.00;;;8.70;99.90;;;;;;5077978;28;20028;-70
2022/04/03 10:06:41;;;;;;;2.13;1.75;;;9.20;99.90;;;;;;5078522;28;20024;-69
2022/04/03 10:09:11;;;;;;;2.08;1.75;;;9.30;99.90;;;;;;5078582;28;20036;-68
2022/04/03 10:11:38;;;;;;;2.50;1.90;;;9.30;99.90;;;;;;5078291;28;20025;-69
2022/04/03 10:14:06;;;;;;;2.45;1.52;;;9.00;99.90;;;;;;5078458;28;20020;-69
2022/04/03 10:16:32;;;;;;;2.55;1.80;;;9.20;99.90;;;;;;5078398;28;20115;-71
2022/04/03 10:18:58;;;;;;;4.20;1.98;;;9.40;99.90;;;;;;5078592;28;20419;-68
2022/04/03 10:21:43;;;;;;;5.32;1.98;;;9.70;99.90;;;;;;5077710;28;20037;-69
2022/04/03 10:24:12;;;;;;;2.05;1.40;;;9.90;99.90;;;;;;5077578;28;20042;-69
2022/04/03 10:26:40;;;;;;;2.13;1.20;;;10.20;99.80;;;;;;5077504;28;20024;-68
2022/04/03 10:29:09;;;;;;;2.25;1.35;;;9.60;99.90;;;;;;5078271;28;20124;-68
2022/04/03 10:31:53;;;;;;;2.13;1.00;;;9.90;99.90;;;;;;5078156;28;20103;-69
2022/04/03 10:34:21;;;;;;;5.72;2.10;;;10.40;99.90;;;;;;5077436;28;20043;-68
2022/04/03 10:36:51;;;;;;;1.38;0.90;;;10.60;98.10;;;;;;5061306;28;20032;-69
2022/04/03 10:39:28;;;;;;;0.80;0.80;;;10.60;98.40;;;;;;5077934;28;20044;-69
2022/04/03 10:42:20;;;;;;;2.28;0.80;;;10.90;98.10;;;;;;5078226;28;20028;-69
2022/04/03 10:45:11;;;;;;;1.15;0.95;;;11.10;97.50;;;;;;5078101;28;20037;-64
2022/04/03 10:47:43;;;;;;;2.03;1.13;;;11.10;97.60;;;;;;5077785;28;20027;-69
2022/04/03 10:50:21;;;;;;;1.17;0.90;;;11.20;97.90;;;;;;5078286;28;20094;-69
2022/04/03 10:52:49;;;;;;;2.72;1.25;;;11.10;96.70;;;;;;5077617;28;20033;-69
2022/04/03 10:55:23;;;;;;;2.33;0.98;;;11.00;97.80;;;;;;5077631;28;20032;-69
2022/04/03 10:58:03;;;;;;;3.10;1.10;;;10.30;97.90;;;;;;5077691;28;20035;-71
2022/04/03 11:00:31;;;;;;;2.45;1.00;;;10.70;98.50;;;;;;5077842;28;20040;-70
2022/04/03 11:02:57;;;;;;;3.08;0.93;;;11.70;97.40;;;;;;5060680;28;20036;-68
2022/04/03 11:05:26;;;;;;;2.97;0.90;;;12.90;95.90;;;;;;5078164;28;20111;-68
2022/04/03 11:07:54;;;;;;;1.58;0.90;;;12.60;95.20;;;;;;5077075;28;20467;-68
2022/04/03 11:10:48;;;;;;;1.42;0.80;;;12.80;95.20;;;;;;5078019;28;20154;-68
2022/04/03 11:13:21;;;;;;;1.83;0.93;;;13.00;94.80;;;;;;5077830;28;20459;-67
2022/04/03 11:15:53;;;;;;;1.13;0.93;;;12.90;94.00;;;;;;5078062;28;20090;-67
2022/04/03 11:18:28;;;;;;;;;;;12.80;93.30;;;;;;5060977;28;20086;-67
2022/04/03 11:21:17;;;;;;;2.60;1.13;;;12.50;93.50;;;;;;5060314;28;20203;-67
2022/04/03 11:24:09;;;;;;;1.10;1.00;;;12.10;94.10;;;;;;5077223;28;20281;-68
2022/04/03 11:26:36;;;;;;;2.53;1.10;;;11.60;94.10;;;;;;5077187;28;20058;-67
2022/04/03 11:29:03;;;;;;;3.83;1.17;;;11.60;94.70;;;;;;5077202;28;20119;-68
2022/04/03 11:31:30;;;;;;;1.65;1.30;;;11.90;95.20;;;;;;5077027;28;20024;-67
2022/04/03 11:33:57;;;;;;;2.53;1.33;;;12.10;94.90;;;;;;5077231;28;20117;-68
2022/04/03 11:36:28;;;;;;;1.42;1.10;;;12.40;95.40;;;;;;5075972;28;20055;-67
2022/04/03 11:38:55;;;;;;;1.27;1.10;;;12.50;94.50;;;;;;5076984;28;20083;-68
2022/04/03 11:41:34;;;;;;;2.05;1.00;;;12.70;94.20;;;;;;5077157;28;20143;-68
2022/04/03 11:44:19;;;;;;;3.80;1.05;;;12.40;94.90;;;;;;5076531;28;20029;-67
2022/04/03 11:46:51;;;;;;;1.50;1.17;;;12.30;94.90;;;;;;5076522;28;20032;-68
2022/04/03 11:49:21;;;;;;;1.40;1.20;;;12.20;95.10;;;;;;5077716;28;20029;-67
2022/04/03 11:51:53;;;;;;;1.30;1.10;;;12.10;94.80;;;;;;5077062;28;20024;-67
2022/04/03 11:54:19;;;;;;;3.00;1.00;;;11.80;95.20;;;;;;5077163;28;20024;-67
2022/04/03 11:56:45;;;;;;;1.60;1.05;;;11.80;96.10;;;;;;5077080;28;20021;-68
2022/04/03 11:59:12;;;;;;;1.20;1.10;;;11.70;96.30;;;;;;5076870;28;20456;-68
2022/04/03 12:01:50;;;;;;;1.20;1.10;;;11.60;96.90;;;;;;5076787;28;20273;-68
2022/04/03 12:04:17;;;;;;;1.77;1.30;;;11.60;97.20;;;;;;5076768;28;20043;-68
2022/04/03 12:06:46;;;;;;;1.92;1.30;;;11.50;96.90;;;;;;5076655;28;20036;-68
2022/04/03 12:09:14;;;;;;;1.65;1.20;;;11.50;97.30;;;;;;5075990;28;20060;-68
2022/04/03 12:11:48;;;;;;;1.20;1.10;;;11.60;97.30;;;;;;5075823;28;20024;-68
2022/04/03 12:14:21;;;;;;;2.03;1.42;;;11.70;96.90;;;;;;5076707;28;20066;-69
2022/04/03 12:16:53;;;;;;;3.03;0.80;;;11.70;97.20;;;;;;5076769;28;20021;-68
2022/04/03 12:19:20;;;;;;;1.23;0.90;;;11.70;97.60;;;;;;5076916;28;20052;-68
2022/04/03 12:22:10;;;;;;;2.13;0.95;;;11.80;98.70;;;;;;5075912;28;20376;-68
2022/04/03 12:24:38;;;;;;;2.58;1.10;;;12.10;99.00;;;;;;5076515;28;20358;-67
2022/04/03 12:27:12;;;;;;;1.10;0.90;;;12.40;98.30;;;;;;5076636;28;20036;-68
2022/04/03 12:29:41;;;;;;;4.25;1.13;;;12.60;98.20;;;;;;5075831;28;20050;-68
2022/04/03 12:32:10;;;;;;;1.73;1.00;;;12.90;98.70;;;;;;5075993;28;20037;-69
2022/04/03 12:34:41;;;;;;;0.85;0.73;;;13.00;97.40;;;;;;5075922;28;20086;-69
2022/04/03 12:37:09;;;;;;;1.27;0.80;;;13.00;96.30;;;;;;5076629;28;20025;-68
2022/04/03 12:39:38;;;;;;;1.80;0.73;;;12.90;96.20;;;;;;5059199;28;20059;-69
2022/04/03 12:42:14;;;;;;;1.33;0.75;;;12.90;96.30;;;;;;5076374;28;20107;-68
2022/04/03 12:44:54;;;;;;;1.27;0.60;;;12.80;95.80;;;;;;5059691;28;20312;-69
2022/04/03 12:47:29;;;;;;;3.38;0.80;;;13.00;95.90;;;;;;5075341;28;20028;-69
2022/04/03 12:50:05;;;;;;;6.50;1.00;;;13.20;95.60;;;;;;5080022;28;20024;-68
2022/04/03 12:52:40;;;;;;;1.88;0.70;;;13.70;95.30;;;;;;5079991;28;20125;-70
2022/04/03 12:55:26;;;;;;;2.53;0.80;;;14.90;94.50;;;;;;5079942;28;20024;-68
2022/04/03 13:00:54;;;;;;;1.35;0.70;;;17.00;90.60;;;;;;5080058;28;20036;-69
2022/04/03 13:03:29;;;;;;;1.15;0.60;;;16.70;90.30;;;;;;5080430;28;20025;-69
2022/04/03 13:05:55;;;;;;;;;;;16.60;89.80;;;;;;5080369;28;20040;-68